Elliott, Iowa
Current Conditions -  °F | °C
As of 7:15 PM on Monday 22 Dec 2014 (Local Time) from KRDK Reporting Station
Haze Haze  
Wind Chill: 35°   Ceiling: 2300
Heat Index: 41°   Visibility: 4mi
Dew Point: 41°   Wind: 9mph
Humidity: 100%   Direction: 270°W
Pressure: 29.43"   Gusts: NA
Location:  41.15°N, 95.16°W
Report Text: KRDK 230115Z AUTO 27008KT 4SM BR FEW006 SCT016 OVC023 05/05 A2943 RMK AO2
Loading
Personal Weather Stations






























Interactive Weather Map New forecast layout! Learn more

10-Day Weather Forecast

Advertisements
Track Severe Weather on mobile